Berezovo, Russia
Current Conditions -  °F | °C
As of 11:30 AM on Friday 28 Nov 2014 (Local Time) from USHH Reporting Station
Clear Clear  
Wind Chill: -24°   Ceiling: Unl
Heat Index: -24°   Visibility: 6mi
Dew Point: -31°   Wind: 2mph
Humidity: 69%   Direction: 140°SE
Pressure: 30.56"   Gusts: NA
Location:  63.93°N, 65.05°E
Report Text: USHH 280630Z 14001MPS CAVOK M31/M35 Q1035 NOSIG RMK QFE77324////60
Loading
Personal Weather Stations






























Interactive Weather Map New forecast layout! Learn more

10-Day Weather Forecast

Advertisements
Track Severe Weather on mobile